createdAt,value
2017-11-12T07:11:54.329Z,5
2017-11-12T07:13:08.526Z,5
2017-11-12T07:14:22.981Z,10
2017-11-12T07:15:37.196Z,10
2017-11-12T07:16:51.789Z,10
2017-11-12T07:18:06.732Z,10
2017-11-12T07:19:21.161Z,10
2017-11-12T07:20:35.813Z,15
2017-11-12T07:21:51.538Z,15
2017-11-12T07:23:06.243Z,15
2017-11-12T07:24:20.930Z,15
2017-11-12T07:25:35.679Z,15
2017-11-12T07:26:50.243Z,15
2017-11-12T07:28:04.737Z,15
2017-11-12T07:29:19.440Z,20
2017-11-12T07:30:35.083Z,20
2017-11-12T07:33:38.293Z,20
2017-11-12T07:34:52.660Z,20
2017-11-12T07:36:06.881Z,20
2017-11-12T07:37:38.612Z,20
2017-11-12T07:38:52.956Z,20
2017-11-12T07:40:07.222Z,20
2017-11-12T07:41:22.045Z,25
2017-11-12T07:43:06.304Z,25
2017-11-12T07:44:20.732Z,25
2017-11-12T07:45:35.356Z,25
2017-11-12T07:47:06.816Z,30
2017-11-12T07:48:21.841Z,30
2017-11-12T07:49:36.177Z,30
2017-11-12T07:51:07.485Z,30
2017-11-12T07:52:22.577Z,30
2017-11-12T07:53:37.489Z,30
2017-11-12T07:54:52.041Z,30
2017-11-12T07:56:06.577Z,30
2017-11-12T07:57:35.859Z,25
2017-11-12T07:58:50.267Z,25
2017-11-12T08:00:04.671Z,20
2017-11-12T08:01:18.858Z,20
2017-11-12T08:02:33.278Z,20
2017-11-12T08:03:48.565Z,20
2017-11-12T08:05:02.912Z,20
2017-11-12T08:06:17.094Z,15
2017-11-12T08:07:41.547Z,15
2017-11-12T08:08:56.425Z,15
2017-11-12T08:10:11.286Z,15
2017-11-12T08:11:25.562Z,15
2017-11-12T08:12:40.418Z,20
2017-11-12T08:13:54.924Z,20
2017-11-12T08:15:22.698Z,20
2017-11-12T08:16:37.341Z,20
2017-11-12T08:17:52.633Z,20
2017-11-12T08:19:07.051Z,25
2017-11-12T08:20:21.808Z,25
2017-11-12T08:21:36.668Z,25
2017-11-12T08:22:51.038Z,25
2017-11-12T08:24:05.306Z,25
2017-11-12T08:25:19.751Z,25
2017-11-12T08:26:35.067Z,25
2017-11-12T08:27:50.691Z,25
2017-11-12T08:29:05.130Z,25
2017-11-12T08:30:19.511Z,25
2017-11-12T08:31:34.703Z,25
2017-11-12T08:32:50.932Z,25
2017-11-12T08:34:05.304Z,25
2017-11-12T08:35:19.722Z,25
2017-11-12T08:36:33.944Z,25
2017-11-12T08:37:49.522Z,25
2017-11-12T08:39:04.168Z,20
2017-11-12T08:40:36.867Z,20
2017-11-12T08:41:51.986Z,20
2017-11-12T08:43:06.233Z,20
2017-11-12T08:44:20.892Z,20
2017-11-12T08:45:35.737Z,20
2017-11-12T08:47:01.089Z,20
2017-11-12T08:48:15.826Z,25
2017-11-12T08:49:31.207Z,20
2017-11-12T08:50:46.247Z,20
2017-11-12T08:52:01.061Z,20
2017-11-12T08:53:16.520Z,20
2017-11-12T08:54:32.560Z,20
2017-11-12T08:55:46.914Z,20
2017-11-12T08:57:01.737Z,15
2017-11-12T08:58:16.718Z,20
2017-11-12T08:59:31.725Z,25
2017-11-12T09:00:45.955Z,25
2017-11-12T09:02:01.650Z,25
2017-11-12T09:03:16.514Z,30
2017-11-12T09:04:36.278Z,25
2017-11-12T09:05:52.214Z,25
2017-11-12T09:07:07.858Z,25
2017-11-12T09:08:22.636Z,25
2017-11-12T09:09:37.268Z,25
2017-11-12T09:10:52.248Z,25
2017-11-12T09:12:08.029Z,25
2017-11-12T09:13:22.392Z,25
2017-11-12T09:14:38.370Z,30
2017-11-12T09:21:06.726Z,25
2017-11-12T09:22:21.932Z,25
2017-11-12T09:24:14.058Z,30
2017-11-12T09:25:28.762Z,30
2017-11-12T09:26:44.422Z,30
2017-11-12T09:27:59.107Z,30
2017-11-12T09:29:14.150Z,25
2017-11-12T09:30:29.453Z,25
2017-11-12T09:31:44.779Z,25
2017-11-12T09:33:17.062Z,30
2017-11-12T09:34:31.605Z,25
2017-11-12T09:35:46.990Z,25
2017-11-12T09:37:01.636Z,25
2017-11-12T09:38:17.495Z,25
2017-11-12T09:39:33.521Z,25
2017-11-12T09:40:48.627Z,30
2017-11-12T09:42:20.844Z,30
2017-11-12T09:43:35.326Z,30
2017-11-12T09:44:49.627Z,35
2017-11-12T09:46:04.036Z,35
2017-11-12T09:47:19.796Z,30
2017-11-12T09:48:34.888Z,30
2017-11-12T09:49:49.293Z,30
2017-11-12T09:52:42.822Z,25
2017-11-12T09:53:57.289Z,20
2017-11-12T09:55:15.205Z,20
2017-11-12T09:56:30.033Z,15
2017-11-12T09:57:46.320Z,10
2017-11-12T09:59:01.350Z,5
2017-11-12T10:00:16.121Z,5
2017-11-12T10:01:35.337Z,5
2017-11-12T10:02:51.267Z,5
2017-11-12T10:04:06.695Z,5
2017-11-12T10:05:21.027Z,5
2017-11-12T10:06:35.451Z,5
2017-11-12T10:07:49.830Z,5
2017-11-12T10:09:04.279Z,10
2017-11-12T10:10:19.170Z,10
2017-11-12T10:11:33.574Z,10
2017-11-12T10:12:47.945Z,10
2017-11-12T10:14:18.241Z,5
2017-11-12T10:16:10.897Z,5
2017-11-12T10:17:40.134Z,5
2017-11-12T10:18:54.684Z,5
2017-11-12T10:20:09.039Z,5
2017-11-12T10:21:41.608Z,5
2017-11-12T10:23:07.712Z,5
2017-11-12T10:24:22.661Z,5
2017-11-12T10:26:00.031Z,5
2017-11-12T10:27:14.966Z,10
2017-11-12T10:28:29.719Z,10
2017-11-12T10:29:44.634Z,10
2017-11-12T10:30:59.138Z,15
2017-11-12T10:32:15.200Z,15
2017-11-12T10:37:42.309Z,25
2017-11-12T10:39:42.722Z,30
2017-11-12T10:41:55.473Z,35
2017-11-12T10:43:32.140Z,40
2017-11-12T10:45:03.896Z,45
2017-11-12T10:46:41.482Z,40
2017-11-12T10:48:18.665Z,35
2017-11-12T10:49:33.686Z,35
2017-11-12T10:50:49.221Z,30
2017-11-12T10:52:05.139Z,30
2017-11-12T10:53:20.242Z,30
2017-11-12T10:54:36.155Z,30
2017-11-12T10:55:50.747Z,30
2017-11-12T10:57:06.041Z,35
2017-11-12T10:58:21.247Z,40
2017-11-12T10:59:36.877Z,45
2017-11-12T11:00:53.299Z,40
2017-11-12T11:02:56.163Z,35
2017-11-12T11:04:10.577Z,35
2017-11-12T11:05:25.451Z,35
2017-11-12T11:06:40.184Z,35
2017-11-12T11:07:55.211Z,30
2017-11-12T11:09:09.785Z,30
2017-11-12T11:10:27.124Z,30
2017-11-12T11:11:42.628Z,25
2017-11-12T11:12:57.659Z,25
2017-11-12T11:14:13.696Z,25
2017-11-12T11:15:28.072Z,20
2017-11-12T11:16:43.687Z,20
2017-11-12T11:17:58.421Z,15
2017-11-12T11:19:12.989Z,15
2017-11-12T11:20:27.561Z,15
2017-11-12T11:22:07.930Z,15
2017-11-12T11:23:22.780Z,15
2017-11-12T11:24:37.258Z,15
2017-11-12T11:26:09.422Z,15
2017-11-12T11:27:24.477Z,15
2017-11-12T11:28:38.768Z,15
2017-11-12T11:30:12.918Z,15
2017-11-12T11:31:27.489Z,20
2017-11-12T11:32:42.293Z,25
2017-11-12T11:33:57.551Z,25
2017-11-12T11:35:12.310Z,25
2017-11-12T11:36:49.651Z,20
2017-11-12T11:38:24.282Z,20
2017-11-12T11:39:39.438Z,15
2017-11-12T11:40:54.146Z,20
2017-11-12T11:42:33.376Z,20
2017-11-12T11:43:48.422Z,20
2017-11-12T11:45:03.728Z,20
2017-11-12T11:46:18.349Z,20
2017-11-12T11:47:33.679Z,20
2017-11-12T11:48:53.228Z,20
2017-11-12T11:50:08.129Z,20
2017-11-12T11:51:35.636Z,15
2017-11-12T11:52:50.425Z,20
2017-11-12T11:54:20.501Z,30
2017-11-12T11:55:50.032Z,25
2017-11-12T11:57:04.384Z,25
2017-11-12T11:58:19.170Z,25
2017-11-12T11:59:33.827Z,25
2017-11-12T12:00:48.507Z,25
2017-11-12T12:02:03.092Z,25
2017-11-12T12:03:17.920Z,30
2017-11-12T12:04:33.226Z,30
2017-11-12T12:06:13.091Z,35
2017-11-12T12:07:28.399Z,35
2017-11-12T12:08:44.553Z,35
2017-11-12T12:10:49.257Z,30
2017-11-12T12:12:20.033Z,30
2017-11-12T12:13:35.306Z,30
2017-11-12T12:14:50.582Z,35
2017-11-12T12:16:06.084Z,35
2017-11-12T12:17:22.974Z,35
2017-11-12T12:18:39.187Z,35
2017-11-12T12:19:56.058Z,30
2017-11-12T12:21:13.300Z,30
2017-11-12T12:22:29.924Z,25
2017-11-12T12:23:44.478Z,25
2017-11-12T12:25:54.214Z,20
2017-11-12T12:27:26.738Z,20
2017-11-12T12:28:41.725Z,25
2017-11-12T12:29:56.580Z,25
2017-11-12T12:31:12.240Z,30
2017-11-12T12:32:27.497Z,25
2017-11-12T12:33:43.154Z,25
2017-11-12T12:34:59.183Z,30
2017-11-12T12:36:15.195Z,35
2017-11-12T12:37:30.083Z,35
2017-11-12T12:39:06.532Z,40
2017-11-12T12:40:21.580Z,40
2017-11-12T12:41:36.081Z,40
2017-11-12T12:42:52.708Z,35
2017-11-12T12:44:07.335Z,30
2017-11-12T12:45:39.036Z,30
2017-11-12T12:46:54.049Z,30
2017-11-12T12:48:09.285Z,35
2017-11-12T12:49:24.619Z,35
2017-11-12T12:50:39.455Z,30
2017-11-12T12:51:54.522Z,25
2017-11-12T12:53:10.196Z,20
2017-11-12T12:54:27.012Z,20
2017-11-12T12:55:55.547Z,20
2017-11-12T12:57:16.179Z,20
2017-11-12T12:58:33.929Z,20
2017-11-12T12:59:49.736Z,25
2017-11-12T13:01:05.084Z,25
2017-11-12T13:02:20.938Z,25
2017-11-12T13:03:36.225Z,25
2017-11-12T13:04:51.835Z,20
2017-11-12T13:06:06.534Z,25
2017-11-12T13:07:21.340Z,25
2017-11-12T13:08:36.180Z,25
2017-11-12T13:09:51.779Z,30
2017-11-12T13:11:06.667Z,30
2017-11-12T13:12:21.123Z,30
2017-11-12T13:13:36.212Z,35
2017-11-12T13:14:57.578Z,35
2017-11-12T13:16:12.147Z,40
2017-11-12T13:17:43.652Z,40
2017-11-12T13:19:34.747Z,40
2017-11-12T13:21:10.890Z,40
2017-11-12T13:22:36.650Z,40
2017-11-12T13:23:51.546Z,40
2017-11-12T13:25:07.212Z,35
2017-11-12T13:26:22.034Z,30
2017-11-12T13:27:36.533Z,25
2017-11-12T13:28:52.398Z,20
2017-11-12T13:30:07.660Z,20
2017-11-12T13:31:23.057Z,20
2017-11-12T13:32:49.250Z,20
2017-11-12T13:34:03.934Z,20
2017-11-12T13:35:18.723Z,25
2017-11-12T13:36:33.500Z,25
2017-11-12T13:37:50.550Z,25
2017-11-12T13:39:07.453Z,25
2017-11-12T13:40:22.390Z,25
2017-11-12T13:41:36.650Z,30
2017-11-12T13:42:51.610Z,30
2017-11-12T13:44:07.168Z,35
2017-11-12T13:45:22.001Z,35
2017-11-12T13:46:36.384Z,35
2017-11-12T13:47:50.918Z,35
2017-11-12T13:49:05.659Z,35
2017-11-12T13:50:20.316Z,45
2017-11-12T13:51:35.519Z,50
2017-11-12T13:52:51.144Z,60
2017-11-12T13:54:08.664Z,65
2017-11-12T13:55:24.444Z,65
2017-11-12T13:56:39.540Z,65
2017-11-12T13:58:00.520Z,60
2017-11-12T13:59:15.356Z,55
2017-11-12T14:00:32.636Z,45
2017-11-12T14:01:47.145Z,40
2017-11-12T14:03:26.875Z,40
2017-11-12T14:04:51.284Z,45
2017-11-12T14:06:05.947Z,50
2017-11-12T14:07:20.616Z,55
2017-11-12T14:08:35.972Z,65
2017-11-12T14:10:06.204Z,70
2017-11-12T14:11:21.516Z,75
2017-11-12T14:14:42.242Z,85
2017-11-12T14:15:57.196Z,85
2017-11-12T14:17:12.166Z,80
2017-11-12T14:18:26.679Z,75
2017-11-12T14:19:41.023Z,70
2017-11-12T14:20:56.153Z,70
2017-11-12T14:22:11.050Z,65
2017-11-12T14:23:26.463Z,55
2017-11-12T14:24:42.072Z,45
2017-11-12T14:26:45.861Z,40
2017-11-12T14:28:00.583Z,40
2017-11-12T14:29:20.012Z,40
2017-11-12T14:31:06.337Z,35
2017-11-12T14:32:25.337Z,30
2017-11-12T14:33:39.790Z,25
2017-11-12T14:34:54.583Z,25
2017-11-12T14:36:11.689Z,30
2017-11-12T14:37:26.787Z,30
2017-11-12T14:38:55.823Z,25
2017-11-12T14:40:27.311Z,20
2017-11-12T14:41:42.778Z,20
2017-11-12T14:42:58.600Z,15
2017-11-12T14:44:13.878Z,15
2017-11-12T14:45:47.065Z,15
2017-11-12T14:47:22.768Z,15
2017-11-12T14:48:37.649Z,15
2017-11-12T14:49:52.149Z,10
2017-11-12T14:51:25.430Z,10
2017-11-12T14:52:50.587Z,10
2017-11-12T14:54:08.409Z,10
2017-11-12T14:55:57.732Z,10
2017-11-12T14:57:45.229Z,10
2017-11-12T14:59:17.240Z,10
2017-11-12T15:00:32.119Z,5
2017-11-12T15:01:46.808Z,5
2017-11-12T15:03:02.109Z,5
2017-11-12T15:04:16.812Z,5
2017-11-12T15:05:32.608Z,5
2017-11-12T15:06:47.088Z,5
2017-11-12T15:08:02.125Z,5
2017-11-12T15:11:19.744Z,5
2017-11-12T15:12:34.821Z,5
2017-11-12T15:13:49.056Z,5
2017-11-12T15:15:04.004Z,5
2017-11-12T15:16:18.250Z,5
2017-11-12T15:17:33.099Z,5
2017-11-12T15:18:48.096Z,5
2017-11-12T15:20:02.676Z,5
2017-11-12T15:21:19.231Z,0
2017-11-12T15:22:36.646Z,0
2017-11-12T15:23:51.987Z,0
2017-11-12T15:25:29.183Z,0
2017-11-12T15:26:44.224Z,0
2017-11-12T15:27:58.786Z,0
2017-11-12T15:29:37.857Z,0
2017-11-12T15:31:15.770Z,0
2017-11-12T15:32:35.611Z,0
2017-11-12T15:33:52.198Z,0
2017-11-12T15:35:08.949Z,0
2017-11-12T15:36:24.189Z,0
2017-11-12T15:37:39.477Z,0
2017-11-12T15:39:09.682Z,0
2017-11-12T15:40:24.385Z,0
2017-11-12T15:41:39.795Z,0
2017-11-12T15:42:54.810Z,0
2017-11-12T15:44:09.887Z,0
2017-11-12T15:45:24.615Z,0
2017-11-12T15:46:39.227Z,0
2017-11-12T15:48:12.993Z,0
2017-11-12T15:49:28.015Z,0
2017-11-12T15:50:43.086Z,0
2017-11-12T15:53:00.095Z,0
2017-11-12T15:54:16.805Z,0
2017-11-12T15:55:31.038Z,0
2017-11-12T15:56:45.410Z,0
2017-11-12T15:57:59.789Z,0
2017-11-12T15:59:14.668Z,0
2017-11-12T16:00:30.599Z,0
2017-11-12T16:01:45.099Z,0
2017-11-12T16:02:59.648Z,0
2017-11-12T16:04:14.107Z,0
2017-11-12T16:05:29.301Z,0
2017-11-12T16:06:45.005Z,0
2017-11-12T16:08:00.394Z,0
2017-11-12T16:09:16.220Z,0
2017-11-12T16:10:31.120Z,0
2017-11-12T16:11:46.045Z,0
2017-11-12T16:13:00.900Z,0
2017-11-12T16:14:16.137Z,0
2017-11-12T16:15:30.984Z,0
2017-11-12T16:16:45.331Z,0
2017-11-12T16:18:00.009Z,0
2017-11-12T16:19:14.531Z,0
2017-11-12T16:20:29.647Z,0
2017-11-12T16:21:44.571Z,0
2017-11-12T16:23:00.699Z,0
2017-11-12T16:24:15.785Z,0
2017-11-12T16:25:30.857Z,0
2017-11-12T16:26:45.379Z,0
2017-11-12T16:28:01.152Z,0
2017-11-12T16:29:19.863Z,0
2017-11-12T16:30:34.794Z,0
2017-11-12T16:31:50.132Z,0
2017-11-12T16:33:04.475Z,0
2017-11-12T16:34:19.191Z,0
2017-11-12T16:35:35.975Z,0
2017-11-12T16:36:52.753Z,0
2017-11-12T16:38:07.071Z,0
2017-11-12T16:39:21.557Z,0
2017-11-12T16:40:35.934Z,0
2017-11-12T16:41:50.587Z,0
2017-11-12T16:43:05.289Z,0
2017-11-12T16:44:20.430Z,0
2017-11-12T16:45:35.696Z,0
2017-11-12T16:46:50.838Z,0
2017-11-12T16:48:05.899Z,0
2017-11-12T16:49:20.872Z,0
2017-11-12T16:50:35.952Z,0
2017-11-12T16:51:52.271Z,0
2017-11-12T16:53:07.373Z,0
2017-11-12T16:54:22.643Z,0
2017-11-12T16:55:39.224Z,0
2017-11-12T16:56:53.693Z,0
2017-11-12T16:58:08.847Z,0
2017-11-12T16:59:23.285Z,0
2017-11-12T17:00:37.763Z,0
2017-11-12T17:01:52.766Z,0
2017-11-12T17:03:07.268Z,0
2017-11-12T17:04:21.780Z,0
2017-11-12T17:05:36.877Z,0
2017-11-12T17:06:51.471Z,0
2017-11-12T17:08:07.216Z,0
2017-11-12T17:09:22.086Z,0
2017-11-12T17:10:37.517Z,0
2017-11-12T17:11:52.537Z,0
2017-11-12T17:13:07.364Z,0
2017-11-12T17:14:22.310Z,0
2017-11-12T17:15:37.856Z,0
2017-11-12T17:16:52.792Z,0
2017-11-12T17:18:07.820Z,0
2017-11-12T17:19:22.655Z,0
2017-11-12T17:20:38.438Z,0
2017-11-12T17:21:53.541Z,0
2017-11-12T17:23:07.945Z,0
2017-11-12T17:24:22.581Z,0
2017-11-12T17:25:37.382Z,0
2017-11-12T17:26:51.847Z,0
2017-11-12T17:28:06.935Z,0
2017-11-12T17:29:21.816Z,0
2017-11-12T17:30:36.580Z,0
2017-11-12T17:31:51.339Z,0
2017-11-12T17:33:06.100Z,0
2017-11-12T17:34:20.527Z,0
2017-11-12T17:35:35.027Z,0
2017-11-12T17:36:49.604Z,0
2017-11-12T17:38:04.467Z,0
2017-11-12T17:39:19.742Z,0
2017-11-12T17:40:34.325Z,0
2017-11-12T17:41:48.824Z,0
2017-11-12T17:43:03.488Z,0
2017-11-12T17:44:18.247Z,0
2017-11-12T17:45:32.600Z,0
2017-11-12T17:46:47.681Z,0
2017-11-12T17:48:52.928Z,0
2017-11-12T17:50:07.232Z,0
2017-11-12T17:51:22.679Z,0
2017-11-12T17:52:38.109Z,0
2017-11-12T17:53:53.056Z,0
2017-11-12T17:55:07.883Z,0
2017-11-12T17:56:22.289Z,0
2017-11-12T17:57:36.773Z,0
2017-11-12T17:58:51.180Z,0
2017-11-12T18:00:06.445Z,0
2017-11-12T18:01:23.122Z,0
2017-11-12T18:08:35.193Z,0
2017-11-12T18:09:49.481Z,0
2017-11-12T18:11:04.310Z,0
2017-11-12T18:12:19.504Z,0
2017-11-12T18:13:34.237Z,0
2017-11-12T18:14:48.497Z,0
2017-11-12T18:16:02.861Z,0
2017-11-12T18:17:17.471Z,0
2017-11-12T18:18:33.191Z,0
2017-11-12T18:19:48.298Z,0
2017-11-12T18:21:02.602Z,0
2017-11-12T18:22:17.388Z,0
2017-11-12T18:23:32.604Z,0
2017-11-12T18:24:46.935Z,0
2017-11-12T18:26:01.312Z,0
2017-11-12T18:27:16.355Z,0
2017-11-12T18:28:31.688Z,0
2017-11-12T18:29:46.815Z,0
2017-11-12T18:31:01.087Z,0
2017-11-12T18:32:15.895Z,0
2017-11-12T18:33:31.332Z,0
2017-11-12T18:34:45.540Z,0
2017-11-12T18:36:01.670Z,0
2017-11-12T18:37:16.699Z,0
2017-11-12T18:38:32.505Z,0
2017-11-12T18:39:46.755Z,0
2017-11-12T18:41:01.682Z,0
2017-11-12T18:42:16.921Z,0
2017-11-12T18:43:32.485Z,0
2017-11-12T18:44:49.431Z,0
2017-11-12T18:46:05.962Z,0
2017-11-12T18:47:21.852Z,0
2017-11-12T18:48:38.232Z,0
2017-11-12T18:49:56.303Z,0
2017-11-12T18:51:13.061Z,0
2017-11-12T18:52:29.079Z,0
2017-11-12T18:53:44.724Z,0
2017-11-12T18:54:59.884Z,0
2017-11-12T18:56:14.528Z,0
2017-11-12T18:57:31.493Z,0
2017-11-12T18:58:47.092Z,0
2017-11-12T19:00:02.055Z,0
2017-11-12T19:01:21.045Z,0
2017-11-12T19:02:37.302Z,0
2017-11-12T19:04:22.530Z,0
2017-11-12T19:05:38.055Z,0
2017-11-12T19:06:53.902Z,0
2017-11-12T19:08:08.800Z,0
2017-11-12T19:09:23.864Z,0
2017-11-12T19:10:39.381Z,0
2017-11-12T19:11:54.946Z,0
2017-11-12T19:13:09.491Z,0
2017-11-12T19:14:24.572Z,0
2017-11-12T19:15:39.305Z,0
2017-11-12T19:16:55.753Z,0
2017-11-12T19:18:10.380Z,0
2017-11-12T19:19:25.519Z,0
2017-11-12T19:20:46.515Z,0
2017-11-12T19:22:05.991Z,0
2017-11-12T19:23:31.361Z,0
2017-11-12T19:24:54.055Z,0
2017-11-12T19:26:14.803Z,0
2017-11-12T19:27:31.130Z,0
2017-11-12T19:28:45.924Z,0
2017-11-12T19:30:01.666Z,0
2017-11-12T19:31:16.452Z,0
2017-11-12T19:32:31.375Z,0
2017-11-12T19:33:47.069Z,0
2017-11-12T19:35:01.726Z,0
2017-11-12T19:36:17.352Z,0
2017-11-12T19:37:31.790Z,0
2017-11-12T19:38:46.217Z,0
2017-11-12T19:40:00.800Z,0
2017-11-12T19:41:15.578Z,0
2017-11-12T19:42:31.667Z,0
2017-11-12T19:43:47.012Z,0
2017-11-12T19:45:02.324Z,0
2017-11-12T19:46:17.750Z,0
2017-11-12T19:47:32.016Z,0
2017-11-12T19:48:46.794Z,0
2017-11-12T19:50:01.697Z,0
2017-11-12T19:51:16.068Z,0
2017-11-12T19:52:30.770Z,0
2017-11-12T19:53:45.248Z,0
2017-11-12T19:55:01.121Z,0
2017-11-12T19:56:16.269Z,0
2017-11-12T19:57:31.071Z,0
2017-11-12T19:58:45.502Z,0
2017-11-12T19:59:59.980Z,0
2017-11-12T20:01:14.822Z,0
2017-11-12T20:02:29.181Z,0
2017-11-12T20:03:44.359Z,0
2017-11-12T20:04:59.304Z,0
2017-11-12T20:06:14.362Z,0
2017-11-12T20:07:30.025Z,0
2017-11-12T20:08:45.896Z,0
2017-11-12T20:10:00.852Z,0
2017-11-12T20:11:15.210Z,0
2017-11-12T20:12:29.729Z,0
2017-11-12T20:13:44.416Z,0
2017-11-12T20:14:58.851Z,0
2017-11-12T20:16:14.855Z,0
2017-11-12T20:17:29.188Z,0
2017-11-12T20:18:43.429Z,0
2017-11-12T20:19:58.649Z,0
2017-11-12T20:21:13.476Z,0
2017-11-12T20:22:29.044Z,0
2017-11-12T20:23:44.067Z,0
2017-11-12T20:24:58.927Z,0
2017-11-12T20:26:14.195Z,0
2017-11-12T20:27:30.146Z,0
2017-11-12T20:28:46.320Z,0
2017-11-12T20:30:01.533Z,0
2017-11-12T20:31:16.538Z,0
2017-11-12T20:32:31.720Z,0
2017-11-12T20:33:47.181Z,0
2017-11-12T20:35:01.888Z,0
2017-11-12T20:36:17.781Z,0
2017-11-12T20:37:33.383Z,0
2017-11-12T20:38:47.689Z,0
2017-11-12T20:40:03.903Z,0
2017-11-12T20:41:19.631Z,0
2017-11-12T20:42:36.899Z,0
2017-11-12T20:43:51.715Z,0
2017-11-12T20:45:06.416Z,0
2017-11-12T20:46:21.880Z,0
2017-11-12T20:47:37.196Z,0
2017-11-12T20:48:51.499Z,0
2017-11-12T20:50:06.447Z,0
2017-11-12T20:51:20.740Z,0
2017-11-12T20:52:35.472Z,0
2017-11-12T20:53:50.877Z,0
2017-11-12T20:55:05.602Z,0
2017-11-12T20:56:21.783Z,0
2017-11-12T20:57:36.267Z,0
2017-11-12T20:58:50.843Z,0
2017-11-12T21:00:05.382Z,0
2017-11-12T21:01:19.610Z,0
2017-11-12T21:02:33.969Z,0
2017-11-12T21:03:49.595Z,0
2017-11-12T21:05:05.272Z,0
2017-11-12T21:06:21.126Z,0
2017-11-12T21:07:37.274Z,0
2017-11-12T21:08:53.349Z,0
2017-11-12T21:10:08.487Z,0
2017-11-12T21:11:22.834Z,0
2017-11-12T21:12:37.042Z,0
2017-11-12T21:13:52.356Z,0
2017-11-12T21:15:06.887Z,0
2017-11-12T21:16:21.526Z,0
2017-11-12T21:17:36.503Z,0
2017-11-12T21:18:51.012Z,0
2017-11-12T21:20:05.520Z,0
2017-11-12T21:21:21.014Z,0
2017-11-12T21:22:35.210Z,0
2017-11-12T21:23:49.474Z,0
2017-11-12T21:25:03.904Z,0
2017-11-12T21:26:18.270Z,0
2017-11-12T21:27:32.848Z,0
2017-11-12T21:28:47.557Z,0
2017-11-12T21:30:01.853Z,0
2017-11-12T21:31:16.536Z,0
2017-11-12T21:32:31.140Z,0
2017-11-12T21:33:45.482Z,0
2017-11-12T21:34:59.767Z,0
2017-11-12T21:36:14.659Z,0
2017-11-12T21:37:28.872Z,0
2017-11-12T21:38:44.048Z,0
2017-11-12T21:39:58.476Z,0
2017-11-12T21:41:12.778Z,0
2017-11-12T21:42:27.080Z,0
2017-11-12T21:43:41.714Z,0
2017-11-12T21:44:56.172Z,0
2017-11-12T21:46:10.473Z,0
2017-11-12T21:47:25.000Z,0
2017-11-12T21:48:39.340Z,0
2017-11-12T21:49:53.674Z,0
2017-11-12T21:51:07.975Z,0
2017-11-12T21:52:23.071Z,0
2017-11-12T21:53:37.353Z,0
2017-11-12T21:54:51.629Z,0
2017-11-12T21:56:11.843Z,0
2017-11-12T21:57:26.060Z,0
2017-11-12T21:58:40.858Z,0
2017-11-12T21:59:55.257Z,0
2017-11-12T22:01:11.188Z,0
2017-11-12T22:02:27.489Z,0
2017-11-12T22:03:43.303Z,0
2017-11-12T22:05:00.100Z,0
2017-11-12T22:06:17.954Z,0
2017-11-12T22:07:34.752Z,0
2017-11-12T22:08:52.019Z,0
2017-11-12T22:10:07.615Z,0
2017-11-12T22:11:22.995Z,0
2017-11-12T22:12:38.009Z,0
2017-11-12T22:13:52.959Z,0
2017-11-12T22:15:08.187Z,0
2017-11-12T22:16:22.759Z,0
2017-11-12T22:17:37.361Z,0
2017-11-12T22:18:51.956Z,0
2017-11-12T22:20:06.686Z,0
2017-11-12T22:21:22.209Z,0
2017-11-12T22:22:38.759Z,0
2017-11-12T22:23:53.300Z,0
2017-11-12T22:25:07.909Z,0
2017-11-12T22:26:22.567Z,0
2017-11-12T22:27:37.730Z,0
2017-11-12T22:28:51.977Z,0
2017-11-12T22:30:07.317Z,0
2017-11-12T22:31:22.561Z,0
2017-11-12T22:32:37.182Z,0
2017-11-12T22:33:53.623Z,0
2017-11-12T22:35:08.484Z,0
2017-11-12T22:36:23.725Z,0
2017-11-12T22:37:39.482Z,0
2017-11-12T22:38:55.006Z,0
2017-11-12T22:40:09.848Z,0
2017-11-12T22:41:24.892Z,0
2017-11-12T22:42:40.286Z,0
2017-11-12T22:43:55.165Z,0
2017-11-12T22:45:09.668Z,0
2017-11-12T22:46:25.310Z,0
2017-11-12T22:47:39.691Z,0
2017-11-12T22:48:54.920Z,0
2017-11-12T22:50:11.318Z,0
2017-11-12T22:51:28.414Z,0
2017-11-12T22:52:44.427Z,0
2017-11-12T22:53:59.212Z,0
2017-11-12T22:55:13.448Z,0
2017-11-12T22:56:28.653Z,0
2017-11-12T22:57:43.707Z,0
2017-11-12T22:58:58.123Z,0
2017-11-12T23:00:13.365Z,0
2017-11-12T23:01:28.801Z,0
2017-11-12T23:02:43.071Z,0
2017-11-12T23:03:57.383Z,0
2017-11-12T23:05:11.658Z,0
2017-11-12T23:06:26.720Z,0
2017-11-12T23:07:41.187Z,0
2017-11-12T23:08:56.341Z,0
2017-11-12T23:10:11.261Z,0
2017-11-12T23:11:26.196Z,0
2017-11-12T23:12:40.442Z,0
2017-11-12T23:13:55.114Z,0
2017-11-12T23:15:09.607Z,0
2017-11-12T23:16:25.477Z,0
2017-11-12T23:17:40.861Z,0
2017-11-12T23:18:55.545Z,0
2017-11-12T23:20:10.809Z,0
2017-11-12T23:21:25.352Z,0
2017-11-12T23:22:39.914Z,0
2017-11-12T23:23:54.261Z,0
2017-11-12T23:25:08.752Z,0
2017-11-12T23:26:24.188Z,0
2017-11-12T23:27:39.274Z,0
2017-11-12T23:28:54.719Z,0
2017-11-12T23:30:08.971Z,0
2017-11-12T23:31:23.241Z,0
2017-11-12T23:32:37.776Z,0
2017-11-12T23:33:52.075Z,0
2017-11-12T23:35:06.274Z,0
2017-11-12T23:36:20.927Z,0
2017-11-12T23:37:35.421Z,0
2017-11-12T23:38:49.837Z,0
2017-11-12T23:40:04.466Z,0
2017-11-12T23:41:18.722Z,0
2017-11-12T23:42:34.182Z,0
2017-11-12T23:43:48.462Z,0
2017-11-12T23:45:02.705Z,0
2017-11-12T23:46:16.931Z,0
2017-11-12T23:47:31.662Z,0
2017-11-12T23:48:46.626Z,0
2017-11-12T23:50:00.845Z,0
2017-11-12T23:51:15.188Z,0
2017-11-12T23:52:29.479Z,0
2017-11-12T23:53:43.755Z,0
2017-11-12T23:54:57.964Z,0
2017-11-12T23:56:50.553Z,0
2017-11-12T23:58:05.140Z,0
2017-11-12T23:59:20.129Z,0
